Time;durP1;ratioP1;P1;durP2;ratioP2;P2;SDS_P1;SDS_P2;PMS_P1;PMS_P2;Temp;Humidity;BMP_temperature;BMP_pressure;BME280_temperature;BME280_humidity;BME280_pressure;Samples;Min_cycle;Max_cycle;Signal;HPM_P1;HPM_P2
2021/03/08 00:00:46;;;;;;;38.95;36.03;;;;;;;;;;5029311;28;20464;-79
2021/03/08 00:03:14;;;;;;;38.22;35.53;;;;;;;;;;5028060;28;20446;-79
2021/03/08 00:05:41;;;;;;;35.00;32.88;;;;;;;;;;5051123;28;20047;-79
2021/03/08 00:08:08;;;;;;;31.67;29.40;;;;;;;;;;5028313;28;20110;-79
2021/03/08 00:10:35;;;;;;;31.10;29.23;;;;;;;;;;5046561;28;20051;-79
2021/03/08 00:13:02;;;;;;;35.05;32.63;;;;;;;;;;5016429;28;20107;-79
2021/03/08 00:15:29;;;;;;;35.08;33.15;;;;;;;;;;5024146;28;20079;-79
2021/03/08 00:17:56;;;;;;;33.97;31.98;;;;;;;;;;5031597;28;20037;-79
2021/03/08 00:20:25;;;;;;;35.28;33.03;;;;;;;;;;5027174;28;20075;-79
2021/03/08 00:22:52;;;;;;;35.22;32.78;;;;;;;;;;5013472;28;20029;-79
2021/03/08 00:25:20;;;;;;;36.78;34.10;;;;;;;;;;5048303;28;20484;-79
2021/03/08 00:27:48;;;;;;;39.38;36.47;;;;;;;;;;5025516;28;20604;-79
2021/03/08 00:30:15;;;;;;;39.00;35.67;;;;;;;;;;5047929;28;20115;-79
2021/03/08 00:32:43;;;;;;;35.35;33.50;;;;;;;;;;5029730;28;20099;-79
2021/03/08 00:35:12;;;;;;;34.92;32.50;;;;;;;;;;5044674;28;20059;-79
2021/03/08 00:37:39;;;;;;;27.20;25.45;;;;;;;;;;5050491;28;20092;-79
2021/03/08 00:40:07;;;;;;;21.38;20.10;;;;;;;;;;5045429;28;20032;-79
2021/03/08 00:42:34;;;;;;;16.15;14.23;;;;;;;;;;5047154;28;20559;-79
2021/03/08 00:45:01;;;;;;;16.40;15.10;;;;;;;;;;5030052;28;20585;-79
2021/03/08 00:47:28;;;;;;;13.73;12.73;;;;;;;;;;5027395;28;20048;-79
2021/03/08 00:49:55;;;;;;;16.05;14.55;;;;;;;;;;5020709;28;20432;-79
2021/03/08 00:52:22;;;;;;;14.70;13.48;;;;;;;;;;5045439;28;20554;-78
2021/03/08 00:54:49;;;;;;;16.55;15.20;;;;;;;;;;5047654;28;20126;-78
2021/03/08 00:57:16;;;;;;;28.92;27.08;;;;;;;;;;5028566;28;20076;-78
2021/03/08 00:59:42;;;;;;;33.08;30.83;;;;;;;;;;5042857;28;20502;-78
2021/03/08 01:02:09;;;;;;;36.70;34.17;;;;;;;;;;5032276;28;20060;-78
2021/03/08 01:04:36;;;;;;;35.92;33.90;;;;;;;;;;5020335;28;20033;-78
2021/03/08 01:07:03;;;;;;;33.28;31.58;;;;;;;;;;5027040;28;20187;-78
2021/03/08 01:09:30;;;;;;;35.92;33.38;;;;;;;;;;5029815;28;20041;-78
2021/03/08 01:11:57;;;;;;;34.83;32.90;;;;;;;;;;5022490;28;20056;-78
2021/03/08 01:14:24;;;;;;;37.95;35.33;;;;;;;;;;5048457;28;20148;-78
2021/03/08 01:16:51;;;;;;;36.05;34.15;;;;;;;;;;5036997;28;20128;-78
2021/03/08 01:19:18;;;;;;;36.00;33.65;;;;;;;;;;5038503;28;20045;-79
2021/03/08 01:21:45;;;;;;;35.25;32.65;;;;;;;;;;5023760;28;20061;-79
2021/03/08 01:24:11;;;;;;;35.92;33.40;;;;;;;;;;5043431;28;20514;-79
2021/03/08 01:26:38;;;;;;;35.50;33.47;;;;;;;;;;5047537;28;20479;-79
2021/03/08 01:29:05;;;;;;;27.95;26.10;;;;;;;;;;5030991;28;20281;-79
2021/03/08 01:31:32;;;;;;;30.58;28.70;;;;;;;;;;5027911;28;20132;-79
2021/03/08 01:33:59;;;;;;;34.33;32.17;;;;;;;;;;5030910;28;20040;-79
2021/03/08 01:36:26;;;;;;;35.67;33.22;;;;;;;;;;5043422;28;20033;-79
2021/03/08 01:38:53;;;;;;;36.20;33.70;;;;;;;;;;5046097;28;20037;-79
2021/03/08 01:41:20;;;;;;;34.47;32.53;;;;;;;;;;5030867;28;20037;-79
2021/03/08 01:43:50;;;;;;;36.47;34.15;;;;;;;;;;5037783;28;20076;-79
2021/03/08 01:46:17;;;;;;;34.67;32.70;;;;;;;;;;5048969;28;20124;-79
2021/03/08 01:48:44;;;;;;;34.13;32.33;;;;;;;;;;5029991;28;20555;-79
2021/03/08 01:51:11;;;;;;;31.80;29.80;;;;;;;;;;5028690;28;20494;-79
2021/03/08 01:53:38;;;;;;;31.83;30.05;;;;;;;;;;5045141;28;20068;-79
2021/03/08 01:56:06;;;;;;;36.28;34.08;;;;;;;;;;5041637;28;20037;-78
2021/03/08 01:58:33;;;;;;;35.25;32.75;;;;;;;;;;5030199;28;20036;-78
2021/03/08 02:01:00;;;;;;;33.85;31.80;;;;;;;;;;5018618;28;20045;-78
2021/03/08 02:03:28;;;;;;;27.73;25.63;;;;;;;;;;5036612;28;20064;-78
2021/03/08 02:05:55;;;;;;;31.48;29.02;;;;;;;;;;5013905;28;20512;-78
2021/03/08 02:08:23;;;;;;;33.38;31.58;;;;;;;;;;5041632;28;20044;-78
2021/03/08 02:10:50;;;;;;;33.10;31.13;;;;;;;;;;5012365;28;20128;-79
2021/03/08 02:13:24;;;;;;;25.77;23.27;;;;;;;;;;5046446;28;20060;-78
2021/03/08 02:16:09;;;;;;;17.70;16.17;;;;;;;;;;5026071;28;20037;-78
2021/03/08 02:18:49;;;;;;;16.30;15.00;;;;;;;;;;5049265;28;20037;-78
2021/03/08 02:21:35;;;;;;;19.15;17.98;;;;;;;;;;5046471;28;20064;-78
2021/03/08 02:24:11;;;;;;;22.33;21.08;;;;;;;;;;5045666;28;20048;-78
2021/03/08 02:26:52;;;;;;;29.08;27.08;;;;;;;;;;5021086;28;20076;-78
2021/03/08 02:29:22;;;;;;;29.42;27.42;;;;;;;;;;5046555;28;20485;-79
2021/03/08 02:32:00;;;;;;;18.33;17.02;;;;;;;;;;5048354;28;20671;-79
2021/03/08 02:34:32;;;;;;;24.15;22.73;;;;;;;;;;5018410;28;20044;-79
2021/03/08 02:37:02;;;;;;;33.00;31.07;;;;;;;;;;5049117;28;20123;-79
2021/03/08 02:39:32;;;;;;;34.97;32.97;;;;;;;;;;5034060;28;20029;-78
2021/03/08 02:42:00;;;;;;;37.53;35.53;;;;;;;;;;5033230;28;20079;-78
2021/03/08 02:44:29;;;;;;;36.50;34.15;;;;;;;;;;5047205;28;20038;-79
2021/03/08 02:46:57;;;;;;;36.08;34.00;;;;;;;;;;5052583;28;20045;-78
2021/03/08 02:49:27;;;;;;;35.65;33.42;;;;;;;;;;5039456;28;20052;-78
2021/03/08 02:51:57;;;;;;;32.17;30.58;;;;;;;;;;5041881;28;20128;-78
2021/03/08 02:54:26;;;;;;;32.65;30.65;;;;;;;;;;5022617;28;20066;-78
2021/03/08 02:56:56;;;;;;;33.03;31.17;;;;;;;;;;5026282;28;20052;-78
2021/03/08 02:59:24;;;;;;;32.83;30.88;;;;;;;;;;5051431;28;20095;-78
2021/03/08 03:01:51;;;;;;;22.10;20.70;;;;;;;;;;5037537;28;20045;-78
2021/03/08 03:04:20;;;;;;;37.75;34.67;;;;;;;;;;5023652;28;20430;-78
2021/03/08 03:06:49;;;;;;;34.90;32.80;;;;;;;;;;5032780;28;20140;-78
2021/03/08 03:09:16;;;;;;;35.58;32.67;;;;;;;;;;5045823;28;20595;-79
2021/03/08 03:11:48;;;;;;;33.60;31.63;;;;;;;;;;5048391;28;20040;-79
2021/03/08 03:14:16;;;;;;;36.83;34.50;;;;;;;;;;5028581;28;20122;-79
2021/03/08 03:16:45;;;;;;;36.63;34.47;;;;;;;;;;5027497;28;20530;-79
2021/03/08 03:19:15;;;;;;;37.10;34.92;;;;;;;;;;5031160;28;20045;-79
2021/03/08 03:21:43;;;;;;;36.85;34.63;;;;;;;;;;5026618;28;20095;-79
2021/03/08 03:24:10;;;;;;;36.92;34.83;;;;;;;;;;5027719;28;20380;-79
2021/03/08 03:26:37;;;;;;;34.35;32.28;;;;;;;;;;5030194;28;20045;-79
2021/03/08 03:29:05;;;;;;;32.80;31.00;;;;;;;;;;5023458;28;20073;-78
2021/03/08 03:31:39;;;;;;;33.72;31.85;;;;;;;;;;5026927;28;20034;-79
2021/03/08 03:34:06;;;;;;;35.65;33.30;;;;;;;;;;5001960;28;20139;-79
2021/03/08 03:36:35;;;;;;;23.90;22.45;;;;;;;;;;5019734;28;20041;-78
2021/03/08 03:39:04;;;;;;;34.50;32.08;;;;;;;;;;5024539;28;20324;-78
2021/03/08 03:41:31;;;;;;;32.72;30.92;;;;;;;;;;5005534;28;20041;-78
2021/03/08 03:43:58;;;;;;;32.78;30.75;;;;;;;;;;5041027;28;20077;-78
2021/03/08 03:46:25;;;;;;;33.70;32.03;;;;;;;;;;5040507;28;20049;-78
2021/03/08 03:48:52;;;;;;;37.00;35.15;;;;;;;;;;5026220;28;20045;-78
2021/03/08 03:51:19;;;;;;;34.38;32.20;;;;;;;;;;5029407;28;20052;-78
2021/03/08 03:53:46;;;;;;;35.35;33.60;;;;;;;;;;5024871;28;20462;-78
2021/03/08 03:56:15;;;;;;;36.10;34.10;;;;;;;;;;5028576;28;20067;-78
2021/03/08 03:58:52;;;;;;;31.85;29.95;;;;;;;;;;5028246;28;20037;-78
2021/03/08 04:01:21;;;;;;;37.13;34.83;;;;;;;;;;5026484;28;20443;-78
2021/03/08 04:03:54;;;;;;;36.38;34.28;;;;;;;;;;5021380;28;20045;-78
2021/03/08 04:06:23;;;;;;;34.47;32.08;;;;;;;;;;5026978;28;20091;-78
2021/03/08 04:08:53;;;;;;;34.13;32.10;;;;;;;;;;5026092;28;20108;-78
2021/03/08 04:11:20;;;;;;;32.35;29.98;;;;;;;;;;5025462;28;20042;-78
2021/03/08 04:13:48;;;;;;;34.53;32.47;;;;;;;;;;5045912;28;20362;-79
2021/03/08 04:16:15;;;;;;;30.45;28.27;;;;;;;;;;5027157;28;20034;-79
2021/03/08 04:18:43;;;;;;;23.05;21.52;;;;;;;;;;5016246;28;20034;-79
2021/03/08 04:21:11;;;;;;;24.27;23.02;;;;;;;;;;5004133;28;20073;-79
2021/03/08 04:23:39;;;;;;;23.23;21.67;;;;;;;;;;5024263;28;20394;-79
2021/03/08 04:26:08;;;;;;;34.50;32.08;;;;;;;;;;5022944;28;20103;-79
2021/03/08 04:28:36;;;;;;;31.75;30.05;;;;;;;;;;5027773;28;20049;-79
2021/03/08 04:31:06;;;;;;;34.70;32.67;;;;;;;;;;5028070;28;20091;-79
2021/03/08 04:33:33;;;;;;;35.08;32.90;;;;;;;;;;5023165;28;20470;-79
2021/03/08 04:36:02;;;;;;;34.22;32.10;;;;;;;;;;5011794;28;20081;-79
2021/03/08 04:38:30;;;;;;;33.45;31.55;;;;;;;;;;5021382;28;20394;-78
2021/03/08 04:40:57;;;;;;;34.67;32.90;;;;;;;;;;5023242;28;20095;-78
2021/03/08 04:43:24;;;;;;;33.90;32.25;;;;;;;;;;5013468;28;20053;-78
2021/03/08 04:45:58;;;;;;;37.72;35.28;;;;;;;;;;5021036;28;20511;-78
2021/03/08 04:48:27;;;;;;;36.22;34.05;;;;;;;;;;5020642;28;20084;-78
2021/03/08 04:50:55;;;;;;;32.75;30.20;;;;;;;;;;5028444;28;20041;-78
2021/03/08 04:53:22;;;;;;;35.30;33.22;;;;;;;;;;5023162;28;20053;-78
2021/03/08 04:55:49;;;;;;;33.35;31.27;;;;;;;;;;5030413;28;20096;-79
2021/03/08 04:58:16;;;;;;;37.28;35.25;;;;;;;;;;5024603;28;20038;-79
2021/03/08 05:00:43;;;;;;;35.67;33.35;;;;;;;;;;5006493;28;20049;-78
2021/03/08 05:03:12;;;;;;;39.05;36.63;;;;;;;;;;5027793;28;20125;-78
2021/03/08 05:05:39;;;;;;;35.85;33.45;;;;;;;;;;5022590;28;20048;-78
2021/03/08 05:08:07;;;;;;;35.88;33.78;;;;;;;;;;5028841;28;20057;-78
2021/03/08 05:10:35;;;;;;;36.03;34.03;;;;;;;;;;5018005;28;20092;-78
2021/03/08 05:13:02;;;;;;;38.17;35.78;;;;;;;;;;5029361;28;20041;-79
2021/03/08 05:15:30;;;;;;;35.30;33.25;;;;;;;;;;5025762;28;20457;-79
2021/03/08 05:17:58;;;;;;;37.20;34.92;;;;;;;;;;5041536;28;20572;-79
2021/03/08 05:20:25;;;;;;;36.60;34.20;;;;;;;;;;5020315;28;20037;-78
2021/03/08 05:22:56;;;;;;;31.92;30.15;;;;;;;;;;5037438;28;20084;-78
2021/03/08 05:25:24;;;;;;;37.47;35.30;;;;;;;;;;5036962;28;20073;-78
2021/03/08 05:27:51;;;;;;;39.00;36.85;;;;;;;;;;5037801;28;20458;-78
2021/03/08 05:30:19;;;;;;;42.55;40.03;;;;;;;;;;5043209;28;20471;-78
2021/03/08 05:33:05;;;;;;;37.15;34.58;;;;;;;;;;5038902;28;20127;-78
2021/03/08 05:35:33;;;;;;;40.28;38.05;;;;;;;;;;5024144;28;20099;-78
2021/03/08 05:38:01;;;;;;;38.22;36.00;;;;;;;;;;5021912;28;20041;-79
2021/03/08 05:40:28;;;;;;;42.28;39.92;;;;;;;;;;5031706;28;20068;-79
2021/03/08 05:43:03;;;;;;;41.90;39.42;;;;;;;;;;5019570;28;20041;-79
2021/03/08 05:45:33;;;;;;;38.80;36.67;;;;;;;;;;5023382;28;20056;-78
2021/03/08 05:48:18;;;;;;;41.08;38.92;;;;;;;;;;5025589;28;20064;-78
2021/03/08 05:51:04;;;;;;;40.60;38.17;;;;;;;;;;5038953;28;20060;-78
2021/03/08 05:53:34;;;;;;;37.22;35.03;;;;;;;;;;5035561;28;20044;-79
2021/03/08 05:56:08;;;;;;;35.92;33.78;;;;;;;;;;5048473;28;20044;-79
2021/03/08 05:58:45;;;;;;;36.90;34.65;;;;;;;;;;5040197;28;20040;-79
2021/03/08 06:01:12;;;;;;;35.45;33.42;;;;;;;;;;5019564;28;20110;-78
2021/03/08 06:04:14;;;;;;;38.25;35.85;;;;;;;;;;5027263;28;20033;-78
2021/03/08 06:06:51;;;;;;;39.45;37.25;;;;;;;;;;4961895;28;20055;-79
2021/03/08 06:09:25;;;;;;;38.45;36.17;;;;;;;;;;5018552;28;20136;-79
2021/03/08 06:12:06;;;;;;;40.05;37.40;;;;;;;;;;5029982;28;20053;-78
2021/03/08 06:14:35;;;;;;;40.58;37.83;;;;;;;;;;5022264;28;20053;-78
2021/03/08 06:17:02;;;;;;;35.78;33.42;;;;;;;;;;5037597;28;20028;-79
2021/03/08 06:19:30;;;;;;;42.58;39.85;;;;;;;;;;5043820;28;20037;-78
2021/03/08 06:21:59;;;;;;;38.58;36.15;;;;;;;;;;5040119;28;20041;-78
2021/03/08 06:24:27;;;;;;;40.78;38.10;;;;;;;;;;5029114;28;20041;-79
2021/03/08 06:26:55;;;;;;;39.20;36.90;;;;;;;;;;5021654;28;20033;-79
2021/03/08 06:29:23;;;;;;;38.50;36.05;;;;;;;;;;5037352;28;20487;-78
2021/03/08 06:31:50;;;;;;;43.83;40.67;;;;;;;;;;5043025;28;20371;-78
2021/03/08 06:34:17;;;;;;;41.35;38.95;;;;;;;;;;5022245;28;20041;-79
2021/03/08 06:36:45;;;;;;;37.45;35.40;;;;;;;;;;5012749;28;20046;-79
2021/03/08 06:39:12;;;;;;;36.60;34.28;;;;;;;;;;5021070;28;20091;-79
2021/03/08 06:41:39;;;;;;;30.25;28.33;;;;;;;;;;5044258;28;20045;-79
2021/03/08 06:44:07;;;;;;;39.58;37.00;;;;;;;;;;5018798;28;20148;-79
2021/03/08 06:46:34;;;;;;;27.40;22.58;;;;;;;;;;5024854;28;20065;-79
2021/03/08 06:49:02;;;;;;;39.53;36.28;;;;;;;;;;5014845;28;20040;-79
2021/03/08 06:51:29;;;;;;;37.17;34.45;;;;;;;;;;5015302;28;20110;-79
2021/03/08 06:53:56;;;;;;;31.67;29.67;;;;;;;;;;5044246;28;20061;-79
2021/03/08 06:56:27;;;;;;;37.45;34.67;;;;;;;;;;5047258;28;20041;-80
2021/03/08 06:59:13;;;;;;;39.67;36.90;;;;;;;;;;5022667;28;20439;-80
2021/03/08 07:01:40;;;;;;;36.38;34.20;;;;;;;;;;5047621;28;20041;-80
2021/03/08 07:04:17;;;;;;;17.08;15.60;;;;;;;;;;5023966;28;20033;-81
2021/03/08 07:06:57;;;;;;;16.40;15.15;;;;;;;;;;5024179;28;20482;-81
2021/03/08 07:09:24;;;;;;;16.00;14.60;;;;;;;;;;5016022;28;20056;-81
2021/03/08 07:12:10;;;;;;;18.30;16.90;;;;;;;;;;5050316;28;20049;-81
2021/03/08 07:14:38;;;;;;;18.23;16.95;;;;;;;;;;5046006;28;20057;-81
2021/03/08 07:17:24;;;;;;;17.15;15.93;;;;;;;;;;5023559;28;20037;-81
2021/03/08 07:19:54;;;;;;;17.17;15.88;;;;;;;;;;5034114;28;20304;-81
2021/03/08 07:22:41;;;;;;;15.63;14.32;;;;;;;;;;5047978;28;20261;-80
2021/03/08 07:25:16;;;;;;;19.80;17.73;;;;;;;;;;5052155;28;20037;-80
2021/03/08 07:27:43;;;;;;;19.80;18.20;;;;;;;;;;5026254;28;20061;-80
2021/03/08 07:30:11;;;;;;;20.13;18.10;;;;;;;;;;5004594;28;20044;-80
2021/03/08 07:33:08;;;;;;;23.08;17.50;;;;;;;;;;5020098;28;20041;-80
2021/03/08 07:35:36;;;;;;;20.45;18.48;;;;;;;;;;5011368;28;20444;-80
2021/03/08 07:38:03;;;;;;;19.65;18.10;;;;;;;;;;5016001;28;20033;-81
2021/03/08 07:40:31;;;;;;;21.50;17.20;;;;;;;;;;5049538;28;20099;-81
2021/03/08 07:42:58;;;;;;;17.27;15.50;;;;;;;;;;5030165;28;20035;-81
2021/03/08 07:45:43;;;;;;;17.20;15.73;;;;;;;;;;5038652;28;20081;-81
2021/03/08 07:48:15;;;;;;;23.95;20.58;;;;;;;;;;5050518;28;20045;-81
2021/03/08 07:50:43;;;;;;;29.55;23.38;;;;;;;;;;5030144;28;20079;-81
2021/03/08 07:53:24;;;;;;;21.27;19.23;;;;;;;;;;5028797;28;20048;-81
2021/03/08 07:55:53;;;;;;;27.20;19.38;;;;;;;;;;5038967;28;20100;-81
2021/03/08 07:58:20;;;;;;;22.13;19.95;;;;;;;;;;5038722;28;20711;-81
2021/03/08 08:00:47;;;;;;;22.45;18.77;;;;;;;;;;5031233;28;20041;-81
2021/03/08 08:03:16;;;;;;;21.70;19.50;;;;;;;;;;5044958;28;20485;-81
2021/03/08 08:05:43;;;;;;;18.92;17.23;;;;;;;;;;5032799;28;20456;-81
2021/03/08 08:08:12;;;;;;;20.50;18.40;;;;;;;;;;5046015;28;20068;-81
2021/03/08 08:10:39;;;;;;;28.52;23.17;;;;;;;;;;5028740;28;20075;-81
2021/03/08 08:13:07;;;;;;;27.02;23.13;;;;;;;;;;5016731;28;20111;-81
2021/03/08 08:15:36;;;;;;;21.58;19.65;;;;;;;;;;5044924;28;20090;-81
2021/03/08 08:18:07;;;;;;;19.83;18.02;;;;;;;;;;5049045;28;20398;-81
2021/03/08 08:20:34;;;;;;;18.63;16.77;;;;;;;;;;5028822;28;20072;-81
2021/03/08 08:23:02;;;;;;;19.13;17.17;;;;;;;;;;5030047;28;20044;-81
2021/03/08 08:25:30;;;;;;;17.00;15.60;;;;;;;;;;5015815;28;20416;-81
2021/03/08 08:27:59;;;;;;;14.98;13.93;;;;;;;;;;5016317;28;20051;-81
2021/03/08 08:30:30;;;;;;;15.65;14.13;;;;;;;;;;5031304;28;20569;-81
2021/03/08 08:32:58;;;;;;;15.68;13.90;;;;;;;;;;5030244;28;20033;-81
2021/03/08 08:35:30;;;;;;;;;;;;;;;;;;5048390;28;20048;-81
2021/03/08 08:38:17;;;;;;;14.85;13.63;;;;;;;;;;5013242;28;19920;-81
2021/03/08 08:40:45;;;;;;;13.30;11.70;;;;;;;;;;5026214;28;20565;-81
2021/03/08 08:43:14;;;;;;;13.93;12.93;;;;;;;;;;5039883;28;20127;-81
2021/03/08 08:45:45;;;;;;;14.27;12.52;;;;;;;;;;5031508;28;20046;-81
2021/03/08 08:48:12;;;;;;;12.88;11.88;;;;;;;;;;5024252;28;20521;-81
2021/03/08 08:50:47;;;;;;;12.90;11.88;;;;;;;;;;5010896;28;20406;-81
2021/03/08 08:53:34;;;;;;;13.68;12.60;;;;;;;;;;5030864;28;20478;-81
2021/03/08 08:56:05;;;;;;;12.07;11.23;;;;;;;;;;5007939;28;20565;-81
2021/03/08 08:58:52;;;;;;;12.43;11.63;;;;;;;;;;5031372;28;20048;-81
2021/03/08 09:01:35;;;;;;;12.75;12.07;;;;;;;;;;5029693;28;20494;-81
2021/03/08 09:04:03;;;;;;;;;;;;;;;;;;5022780;28;20037;-81
2021/03/08 09:06:49;;;;;;;13.55;12.68;;;;;;;;;;5031968;28;20058;-81
2021/03/08 09:09:20;;;;;;;13.88;12.32;;;;;;;;;;5048393;28;20460;-81
2021/03/08 09:11:48;;;;;;;12.88;11.50;;;;;;;;;;5013551;28;20045;-82
2021/03/08 09:14:37;;;;;;;13.35;12.15;;;;;;;;;;5050017;28;20053;-82
2021/03/08 09:17:19;;;;;;;13.18;12.10;;;;;;;;;;5046021;28;20047;-82
2021/03/08 09:19:56;;;;;;;12.68;11.77;;;;;;;;;;5003920;28;20056;-82
2021/03/08 09:22:26;;;;;;;12.40;11.60;;;;;;;;;;5014969;28;20048;-82
2021/03/08 09:24:54;;;;;;;11.88;10.98;;;;;;;;;;5037153;28;20045;-82
2021/03/08 09:27:47;;;;;;;14.15;12.77;;;;;;;;;;5003459;28;20077;-82
2021/03/08 09:30:21;;;;;;;14.32;12.50;;;;;;;;;;5024221;28;20084;-82
2021/03/08 09:32:49;;;;;;;14.20;11.98;;;;;;;;;;5037260;28;20076;-82
2021/03/08 09:35:17;;;;;;;11.95;10.88;;;;;;;;;;5042624;28;20095;-82
2021/03/08 09:37:47;;;;;;;13.73;12.45;;;;;;;;;;5047932;28;20068;-82
2021/03/08 09:40:16;;;;;;;12.88;11.73;;;;;;;;;;5027746;28;20128;-82
2021/03/08 09:42:43;;;;;;;10.80;9.98;;;;;;;;;;5031115;28;20402;-82
2021/03/08 09:45:20;;;;;;;10.10;9.27;;;;;;;;;;5045553;28;20091;-82
2021/03/08 09:47:47;;;;;;;10.27;9.23;;;;;;;;;;5045147;28;20045;-82
2021/03/08 09:50:32;;;;;;;11.30;10.15;;;;;;;;;;5022437;28;20045;-82
2021/03/08 09:52:59;;;;;;;9.80;9.15;;;;;;;;;;5028474;28;20038;-82
2021/03/08 09:55:36;;;;;;;13.68;10.75;;;;;;;;;;5036818;28;20041;-83
2021/03/08 09:58:23;;;;;;;12.75;11.52;;;;;;;;;;5049295;28;20079;-82
2021/03/08 10:00:51;;;;;;;12.07;10.48;;;;;;;;;;5043691;28;20072;-82
2021/03/08 10:03:18;;;;;;;13.30;10.40;;;;;;;;;;5046913;28;20129;-82
2021/03/08 10:05:46;;;;;;;11.43;10.20;;;;;;;;;;5010721;28;20045;-82
2021/03/08 10:08:14;;;;;;;11.40;10.18;;;;;;;;;;5025280;28;20144;-82
2021/03/08 10:10:46;;;;;;;15.40;11.05;;;;;;;;;;5032013;28;20044;-82
2021/03/08 10:13:13;;;;;;;12.57;9.48;;;;;;;;;;5014356;28;20055;-82
2021/03/08 10:15:44;;;;;;;9.18;8.38;;;;;;;;;;5027651;28;20490;-82
2021/03/08 10:18:12;;;;;;;8.82;8.05;;;;;;;;;;5031947;28;20127;-82
2021/03/08 10:20:43;;;;;;;8.10;7.40;;;;;;;;;;5025133;28;20063;-82
2021/03/08 10:23:14;;;;;;;7.53;7.10;;;;;;;;;;5012475;28;20037;-82
2021/03/08 10:25:41;;;;;;;9.55;6.63;;;;;;;;;;5044708;28;20049;-82
2021/03/08 10:28:08;;;;;;;8.43;5.93;;;;;;;;;;5027713;28;20098;-82
2021/03/08 10:30:35;;;;;;;7.97;6.40;;;;;;;;;;5031250;28;20436;-82
2021/03/08 10:33:03;;;;;;;5.03;4.82;;;;;;;;;;5019728;28;20077;-82
2021/03/08 10:35:32;;;;;;;7.47;6.65;;;;;;;;;;5035236;28;20040;-82
2021/03/08 10:38:21;;;;;;;5.68;5.47;;;;;;;;;;5031801;28;20048;-82
2021/03/08 10:40:48;;;;;;;5.78;5.43;;;;;;;;;;5043686;28;20424;-82
2021/03/08 10:43:15;;;;;;;7.80;5.90;;;;;;;;;;5029671;28;20106;-82
2021/03/08 10:45:42;;;;;;;7.28;6.70;;;;;;;;;;5048769;28;20045;-82
2021/03/08 10:48:10;;;;;;;8.25;5.25;;;;;;;;;;5047847;28;20103;-82
2021/03/08 10:50:45;;;;;;;5.90;4.55;;;;;;;;;;5030522;28;20037;-82
2021/03/08 10:53:19;;;;;;;4.75;4.45;;;;;;;;;;5039972;28;20165;-82
2021/03/08 10:55:46;;;;;;;5.88;4.53;;;;;;;;;;5040479;28;20120;-82
2021/03/08 10:58:13;;;;;;;5.18;4.05;;;;;;;;;;5018819;28;20115;-82
2021/03/08 11:00:41;;;;;;;5.28;3.90;;;;;;;;;;5023573;28;20102;-82
2021/03/08 11:03:27;;;;;;;8.05;5.00;;;;;;;;;;5026466;28;20382;-82
2021/03/08 11:06:05;;;;;;;4.25;3.97;;;;;;;;;;5034044;28;20114;-82
2021/03/08 11:08:39;;;;;;;5.47;4.50;;;;;;;;;;5028011;28;20052;-82
2021/03/08 11:11:19;;;;;;;3.75;3.47;;;;;;;;;;5017059;28;20083;-82
2021/03/08 11:13:47;;;;;;;3.47;3.17;;;;;;;;;;5028164;28;20053;-82
2021/03/08 11:16:15;;;;;;;5.07;3.63;;;;;;;;;;5046893;28;20038;-82
2021/03/08 11:18:43;;;;;;;8.65;4.30;;;;;;;;;;5046799;28;20049;-82
2021/03/08 11:21:26;;;;;;;7.03;3.60;;;;;;;;;;5043453;28;20067;-82
2021/03/08 11:23:54;;;;;;;4.25;3.90;;;;;;;;;;5050385;28;20029;-82
2021/03/08 11:26:21;;;;;;;2.45;2.30;;;;;;;;;;5044112;28;20044;-82
2021/03/08 11:28:49;;;;;;;2.90;2.80;;;;;;;;;;5052660;28;20060;-82
2021/03/08 11:31:20;;;;;;;3.80;3.38;;;;;;;;;;5031055;28;20037;-82
2021/03/08 11:33:55;;;;;;;6.38;3.03;;;;;;;;;;5046644;28;20051;-82
2021/03/08 11:36:35;;;;;;;2.58;2.47;;;;;;;;;;5046762;28;20044;-82
2021/03/08 11:39:03;;;;;;;3.17;2.83;;;;;;;;;;5051112;28;20047;-82
2021/03/08 11:41:31;;;;;;;4.47;3.13;;;;;;;;;;5029275;28;20045;-82
2021/03/08 11:43:58;;;;;;;4.43;2.80;;;;;;;;;;5049477;28;20474;-82
2021/03/08 11:46:28;;;;;;;3.03;2.83;;;;;;;;;;5030394;28;20043;-82
2021/03/08 11:49:00;;;;;;;3.63;3.33;;;;;;;;;;5046742;28;20063;-82
2021/03/08 11:51:27;;;;;;;7.03;3.67;;;;;;;;;;5050951;28;20040;-82
2021/03/08 11:53:54;;;;;;;3.03;2.83;;;;;;;;;;5028722;28;20136;-82
2021/03/08 11:56:24;;;;;;;3.08;2.97;;;;;;;;;;5030963;28;20037;-82
2021/03/08 11:58:51;;;;;;;4.15;3.28;;;;;;;;;;5034164;28;20045;-82
2021/03/08 12:01:17;;;;;;;3.40;3.13;;;;;;;;;;5046949;28;20558;-82
2021/03/08 12:03:44;;;;;;;7.47;3.38;;;;;;;;;;5033339;28;20048;-83
2021/03/08 12:06:11;;;;;;;9.48;3.28;;;;;;;;;;5045554;28;20056;-83
2021/03/08 12:08:39;;;;;;;2.65;2.55;;;;;;;;;;5031863;28;20094;-82
2021/03/08 12:11:06;;;;;;;3.13;2.92;;;;;;;;;;5050132;28;20072;-82
2021/03/08 12:13:33;;;;;;;2.90;2.75;;;;;;;;;;5023815;28;20053;-82
2021/03/08 12:15:59;;;;;;;3.20;2.83;;;;;;;;;;5043948;28;20087;-82
2021/03/08 12:18:27;;;;;;;4.75;3.08;;;;;;;;;;5053282;28;20047;-82
2021/03/08 12:20:54;;;;;;;3.67;3.38;;;;;;;;;;5055551;28;20037;-82
2021/03/08 12:23:21;;;;;;;3.08;2.95;;;;;;;;;;5039983;28;20095;-82
2021/03/08 12:25:52;;;;;;;3.50;3.08;;;;;;;;;;5042447;28;20485;-82
2021/03/08 12:28:19;;;;;;;3.15;2.95;;;;;;;;;;5026073;28;20064;-82
2021/03/08 12:30:46;;;;;;;3.33;3.13;;;;;;;;;;5033588;28;20037;-82
2021/03/08 12:33:13;;;;;;;4.60;2.90;;;;;;;;;;5053865;28;20043;-82
2021/03/08 12:35:41;;;;;;;3.13;3.00;;;;;;;;;;5057526;28;20048;-82
2021/03/08 12:38:08;;;;;;;2.88;2.67;;;;;;;;;;5055676;28;20504;-82
2021/03/08 12:40:35;;;;;;;2.75;2.65;;;;;;;;;;5023376;28;20363;-82
2021/03/08 12:43:02;;;;;;;3.60;3.33;;;;;;;;;;5042866;28;20037;-82
2021/03/08 12:45:29;;;;;;;2.80;2.20;;;;;;;;;;5023142;28;20041;-82
2021/03/08 12:47:56;;;;;;;3.15;2.65;;;;;;;;;;5020283;28;20056;-82
2021/03/08 12:50:24;;;;;;;4.75;4.45;;;;;;;;;;5026973;28;20041;-82
2021/03/08 12:52:51;;;;;;;4.82;4.63;;;;;;;;;;5038009;28;20111;-82
2021/03/08 12:55:18;;;;;;;4.25;3.70;;;;;;;;;;5028083;28;20044;-82
2021/03/08 12:57:45;;;;;;;5.18;4.78;;;;;;;;;;5047708;28;20069;-82
2021/03/08 13:00:12;;;;;;;3.25;2.80;;;;;;;;;;5038127;28;20029;-82
2021/03/08 13:02:40;;;;;;;3.42;3.22;;;;;;;;;;5044821;28;20065;-82
2021/03/08 13:05:08;;;;;;;3.95;3.63;;;;;;;;;;5030612;28;20037;-82
2021/03/08 13:07:35;;;;;;;3.08;2.85;;;;;;;;;;5030163;28;20099;-82
2021/03/08 13:10:03;;;;;;;3.38;3.15;;;;;;;;;;5027794;28;20048;-82
2021/03/08 13:12:30;;;;;;;4.47;4.20;;;;;;;;;;5031889;28;20072;-82
2021/03/08 13:14:57;;;;;;;3.38;3.17;;;;;;;;;;5015803;28;20132;-82
2021/03/08 13:17:34;;;;;;;4.10;3.90;;;;;;;;;;5030966;28;20040;-82
2021/03/08 13:20:02;;;;;;;4.35;3.63;;;;;;;;;;5046134;28;20405;-82
2021/03/08 13:22:29;;;;;;;4.03;3.25;;;;;;;;;;5026026;28;20049;-82
2021/03/08 13:24:56;;;;;;;3.53;3.33;;;;;;;;;;5035598;28;20064;-82
2021/03/08 13:27:23;;;;;;;5.32;3.25;;;;;;;;;;5045576;28;20490;-82
2021/03/08 13:29:51;;;;;;;3.45;3.22;;;;;;;;;;5048785;28;20037;-82
2021/03/08 13:32:22;;;;;;;5.07;4.10;;;;;;;;;;5030882;28;20049;-82
2021/03/08 13:34:49;;;;;;;3.33;3.10;;;;;;;;;;5042011;28;20414;-82
2021/03/08 13:37:16;;;;;;;3.97;3.75;;;;;;;;;;5031564;28;20165;-82
2021/03/08 13:39:43;;;;;;;2.95;2.70;;;;;;;;;;5029603;28;20496;-82
2021/03/08 13:42:10;;;;;;;3.78;2.85;;;;;;;;;;5027844;28;20064;-82
2021/03/08 13:44:37;;;;;;;5.10;2.85;;;;;;;;;;5049651;28;20040;-82
2021/03/08 13:47:04;;;;;;;2.78;2.67;;;;;;;;;;5021607;28;20053;-83
2021/03/08 13:49:32;;;;;;;3.00;2.80;;;;;;;;;;5043282;28;20051;-82
2021/03/08 13:51:59;;;;;;;3.13;3.03;;;;;;;;;;5045962;28;20044;-81
2021/03/08 13:54:26;;;;;;;5.93;4.85;;;;;;;;;;5028978;28;20128;-81
2021/03/08 13:56:53;;;;;;;10.63;9.57;;;;;;;;;;5050314;28;20493;-81
2021/03/08 13:59:21;;;;;;;2.90;2.65;;;;;;;;;;5024550;28;20038;-81
2021/03/08 14:01:48;;;;;;;3.00;2.90;;;;;;;;;;5021796;28;20061;-81
2021/03/08 14:04:17;;;;;;;3.83;3.53;;;;;;;;;;5030848;28;20394;-81
2021/03/08 14:06:45;;;;;;;4.05;3.72;;;;;;;;;;5044213;28;20060;-81
2021/03/08 14:09:12;;;;;;;6.28;5.80;;;;;;;;;;5049741;28;20381;-81
2021/03/08 14:11:39;;;;;;;7.28;6.80;;;;;;;;;;5043876;28;20106;-81
2021/03/08 14:14:06;;;;;;;8.32;7.57;;;;;;;;;;5045445;28;20096;-81
2021/03/08 14:16:33;;;;;;;5.03;4.82;;;;;;;;;;5048152;28;20044;-81
2021/03/08 14:19:00;;;;;;;5.95;4.50;;;;;;;;;;5013626;28;20048;-81
2021/03/08 14:21:28;;;;;;;7.22;6.20;;;;;;;;;;5029584;28;20033;-81
2021/03/08 14:23:55;;;;;;;6.95;5.28;;;;;;;;;;5030122;28;20084;-81
2021/03/08 14:26:22;;;;;;;8.82;8.10;;;;;;;;;;5045198;28;20050;-81
2021/03/08 14:28:54;;;;;;;8.75;8.07;;;;;;;;;;5016592;28;20096;-80
2021/03/08 14:31:21;;;;;;;10.18;9.30;;;;;;;;;;5043679;28;20514;-81
2021/03/08 14:33:49;;;;;;;12.52;10.98;;;;;;;;;;5029893;28;20132;-81
2021/03/08 14:36:17;;;;;;;16.02;10.50;;;;;;;;;;5028605;28;20064;-81
2021/03/08 14:38:45;;;;;;;10.95;9.88;;;;;;;;;;5045807;28;20029;-80
2021/03/08 14:41:12;;;;;;;10.55;9.48;;;;;;;;;;5047075;28;20478;-80